Time;durP1;ratioP1;P1;durP2;ratioP2;P2;SDS_P1;SDS_P2;PMS_P1;PMS_P2;Temp;Humidity;BMP_temperature;BMP_pressure;BME280_temperature;BME280_humidity;BME280_pressure;Samples;Min_cycle;Max_cycle;Signal;HPM_P1;HPM_P2
2022/07/10 00:01:16;;;;;;;15.48;3.30;;;;;;;12.45;79.86;102601.31;5067629;28;20050;-77
2022/07/10 00:03:44;;;;;;;7.93;2.78;;;;;;;12.42;79.68;102590.69;5067640;28;20449;-78
2022/07/10 00:06:09;;;;;;;13.20;3.10;;;;;;;12.34;79.86;102603.69;5050993;28;20495;-78
2022/07/10 00:08:35;;;;;;;14.20;3.00;;;;;;;12.32;80.62;102602.91;5068875;28;20119;-78
2022/07/10 00:11:00;;;;;;;10.32;2.80;;;;;;;12.24;79.85;102612.25;5067205;28;20099;-78
2022/07/10 00:13:26;;;;;;;7.78;2.97;;;;;;;12.23;79.92;102615.91;5070214;28;20527;-78
2022/07/10 00:15:51;;;;;;;11.48;3.17;;;;;;;12.18;79.56;102611.69;5068908;28;20035;-78
2022/07/10 00:18:16;;;;;;;13.25;2.83;;;;;;;12.18;79.67;102609.00;5066290;28;20073;-78
2022/07/10 00:20:41;;;;;;;8.95;2.95;;;;;;;12.13;79.85;102598.47;5074886;28;20028;-78
2022/07/10 00:23:07;;;;;;;15.20;3.00;;;;;;;12.13;79.80;102606.56;5082958;28;20107;-78
2022/07/10 00:25:32;;;;;;;8.07;2.85;;;;;;;12.16;79.58;102603.69;5068145;28;20039;-78
2022/07/10 00:27:57;;;;;;;11.10;3.42;;;;;;;12.13;80.12;102603.84;5068523;28;20020;-78
2022/07/10 00:30:23;;;;;;;9.35;3.10;;;;;;;12.13;80.03;102601.16;5068139;28;20048;-78
2022/07/10 00:32:48;;;;;;;12.90;3.75;;;;;;;12.18;80.35;102599.13;5069882;28;20055;-78
2022/07/10 00:35:14;;;;;;;10.30;3.10;;;;;;;12.19;79.53;102599.97;5068549;28;20020;-78
2022/07/10 00:37:39;;;;;;;10.10;3.25;;;;;;;12.20;80.31;102604.44;5069741;28;20093;-78
2022/07/10 00:40:05;;;;;;;10.27;3.10;;;;;;;12.15;80.29;102593.88;5067472;28;20031;-78
2022/07/10 00:42:30;;;;;;;7.70;3.08;;;;;;;12.14;80.49;102592.13;5068736;28;20472;-78
2022/07/10 00:44:56;;;;;;;10.77;3.10;;;;;;;12.10;80.59;102597.78;5069067;28;20025;-78
2022/07/10 00:47:21;;;;;;;9.40;3.67;;;;;;;12.10;80.56;102589.69;5067627;28;20094;-78
2022/07/10 00:49:49;;;;;;;12.95;3.38;;;;;;;12.06;80.04;102583.56;5069086;28;20021;-79
2022/07/10 00:52:17;;;;;;;11.93;3.67;;;;;;;12.05;80.82;102579.16;5088970;28;20028;-79
2022/07/10 00:54:44;;;;;;;9.32;3.17;;;;;;;12.03;80.91;102583.72;5072792;28;20028;-79
2022/07/10 00:57:10;;;;;;;11.95;3.78;;;;;;;11.96;80.88;102582.28;5070206;28;20027;-79
2022/07/10 00:59:36;;;;;;;14.48;3.42;;;;;;;11.98;80.74;102577.72;5071222;28;20033;-79
2022/07/10 01:02:03;;;;;;;12.38;3.45;;;;;;;12.00;81.12;102583.88;5072079;28;20452;-81
2022/07/10 01:04:29;;;;;;;15.38;3.72;;;;;;;11.97;81.67;102574.13;5089377;28;20040;-81
2022/07/10 01:06:55;;;;;;;11.65;3.42;;;;;;;12.01;81.31;102574.88;5074028;28;20044;-81
2022/07/10 01:09:20;;;;;;;14.38;3.92;;;;;;;12.07;81.89;102571.84;5073149;28;20112;-81
2022/07/10 01:11:46;;;;;;;14.27;3.88;;;;;;;12.12;81.94;102568.91;5071228;28;20032;-81
2022/07/10 01:14:12;;;;;;;10.85;3.38;;;;;;;12.17;81.48;102561.47;5073519;28;20041;-81
2022/07/10 01:16:37;;;;;;;14.82;3.78;;;;;;;12.22;82.22;102559.38;5071337;28;20039;-81
2022/07/10 01:19:03;;;;;;;15.13;4.10;;;;;;;12.31;81.21;102558.03;5073272;28;20017;-81
2022/07/10 01:21:33;;;;;;;12.52;3.63;;;;;;;12.32;80.38;102552.53;5079213;28;20332;-81
2022/07/10 01:23:59;;;;;;;14.48;3.70;;;;;;;12.34;80.72;102545.25;5071847;28;20089;-81
2022/07/10 01:26:25;;;;;;;14.35;3.65;;;;;;;12.34;80.40;102536.28;5071963;28;20052;-81
2022/07/10 01:28:53;;;;;;;10.82;3.30;;;;;;;12.32;80.86;102546.28;5072618;28;20089;-81
2022/07/10 01:31:19;;;;;;;9.77;2.97;;;;;;;12.27;81.10;102535.75;5066051;28;20415;-81
2022/07/10 01:33:46;;;;;;;12.73;3.42;;;;;;;12.22;80.56;102535.97;5071500;28;20027;-81
2022/07/10 01:36:12;;;;;;;16.00;3.67;;;;;;;12.20;81.05;102543.28;5072932;28;20029;-81
2022/07/10 01:38:37;;;;;;;14.10;4.05;;;;;;;12.20;81.08;102537.03;5071462;28;20027;-81
2022/07/10 01:41:02;;;;;;;15.85;3.47;;;;;;;12.18;81.11;102534.41;5070688;28;20035;-81
2022/07/10 01:43:27;;;;;;;9.60;3.35;;;;;;;12.13;81.05;102535.63;5071554;28;20155;-81
2022/07/10 01:45:53;;;;;;;11.23;2.78;;;;;;;12.11;81.56;102537.50;5073642;28;20021;-81
2022/07/10 01:48:18;;;;;;;12.05;3.63;;;;;;;12.02;81.16;102539.75;5072451;28;20043;-81
2022/07/10 01:50:43;;;;;;;11.82;3.40;;;;;;;11.99;81.15;102548.00;5075508;28;20060;-81
2022/07/10 01:53:08;;;;;;;15.15;3.67;;;;;;;11.97;81.56;102539.09;5075027;28;20054;-81
2022/07/10 01:55:34;;;;;;;11.23;3.63;;;;;;;11.94;81.48;102538.41;5071626;28;20040;-81
2022/07/10 01:57:59;;;;;;;10.50;3.28;;;;;;;11.89;81.44;102542.16;5072979;28;20029;-81
2022/07/10 02:00:25;;;;;;;15.70;3.15;;;;;;;11.86;81.71;102549.56;5069225;28;20052;-81
2022/07/10 02:05:35;;;;;;;10.02;4.00;;;;;;;11.82;82.14;102542.56;5072403;28;20085;-82
2022/07/10 02:08:00;;;;;;;16.00;4.63;;;;;;;11.81;82.25;102547.06;5072868;28;20028;-82
2022/07/10 02:10:25;;;;;;;12.05;3.50;;;;;;;11.76;81.85;102537.47;5070414;28;20134;-82
2022/07/10 02:12:51;;;;;;;14.32;3.60;;;;;;;11.75;81.97;102539.31;5072959;28;20174;-82
2022/07/10 02:15:16;;;;;;;8.57;3.15;;;;;;;11.75;82.11;102541.16;5070913;28;20020;-82
2022/07/10 02:17:41;;;;;;;12.10;3.72;;;;;;;11.75;82.45;102544.69;5071089;28;20115;-82
2022/07/10 02:20:10;;;;;;;8.88;3.13;;;;;;;11.69;82.30;102545.88;5070548;28;20024;-82
2022/07/10 02:22:36;;;;;;;12.00;3.90;;;;;;;11.66;82.34;102546.03;5079900;28;20112;-82
2022/07/10 02:25:01;;;;;;;11.90;4.20;;;;;;;11.68;82.45;102543.25;5070612;28;20159;-82
2022/07/10 02:27:26;;;;;;;11.77;3.55;;;;;;;11.69;82.72;102545.88;5072356;28;20032;-82
2022/07/10 02:29:52;;;;;;;10.13;3.30;;;;;;;11.65;82.72;102541.59;5069708;28;20159;-82
2022/07/10 02:32:18;;;;;;;13.35;3.80;;;;;;;11.66;82.75;102545.19;5071177;28;20142;-82
2022/07/10 02:34:43;;;;;;;14.85;4.43;;;;;;;11.63;83.07;102542.63;5072376;28;20029;-82
2022/07/10 02:37:08;;;;;;;13.00;4.05;;;;;;;11.60;83.02;102542.81;5071461;28;20024;-82
2022/07/10 02:39:33;;;;;;;11.05;3.63;;;;;;;11.56;83.29;102535.81;5071370;28;20036;-82
2022/07/10 02:41:59;;;;;;;10.35;4.05;;;;;;;11.54;83.65;102539.44;5087464;28;20059;-82
2022/07/10 02:44:24;;;;;;;15.70;3.70;;;;;;;11.56;83.18;102536.69;5062838;28;20021;-82
2022/07/10 02:46:49;;;;;;;13.95;3.90;;;;;;;11.56;83.36;102541.22;5055889;28;20031;-82
2022/07/10 02:49:14;;;;;;;12.15;3.40;;;;;;;11.56;82.74;102535.81;5070959;28;20112;-82
2022/07/10 02:51:40;;;;;;;13.05;3.78;;;;;;;11.55;82.98;102529.53;5071024;28;20024;-82
2022/07/10 02:54:07;;;;;;;12.38;3.65;;;;;;;11.53;83.07;102526.94;5068862;28;20453;-82
2022/07/10 02:56:32;;;;;;;13.68;3.78;;;;;;;11.54;82.65;102528.69;5071088;28;20047;-82
2022/07/10 02:58:58;;;;;;;8.98;3.00;;;;;;;11.54;83.58;102534.06;5071410;28;20020;-82
2022/07/10 03:01:23;;;;;;;10.93;3.30;;;;;;;11.56;83.16;102530.44;5071117;28;20037;-82
2022/07/10 03:03:48;;;;;;;16.40;3.88;;;;;;;11.53;83.61;102532.31;5070221;28;20559;-81
2022/07/10 03:06:14;;;;;;;16.05;3.95;;;;;;;11.52;84.07;102533.28;5070429;28;20062;-81
2022/07/10 03:08:39;;;;;;;8.85;3.00;;;;;;;11.51;83.53;102531.53;5071414;28;20159;-81
2022/07/10 03:11:05;;;;;;;12.05;3.90;;;;;;;11.54;83.63;102535.91;5070234;28;20035;-81
2022/07/10 03:13:30;;;;;;;14.85;3.80;;;;;;;11.56;83.82;102527.75;5067670;28;20348;-81
2022/07/10 03:15:55;;;;;;;14.10;4.32;;;;;;;11.51;83.55;102527.97;5070386;28;20158;-81
2022/07/10 03:18:21;;;;;;;14.80;3.67;;;;;;;11.49;83.41;102528.06;5072015;28;20112;-81
2022/07/10 03:20:46;;;;;;;8.38;3.03;;;;;;;11.48;83.83;102526.31;5076477;28;20108;-81
2022/07/10 03:23:11;;;;;;;8.82;3.25;;;;;;;11.47;83.49;102529.06;5092545;28;20028;-81
2022/07/10 03:25:36;;;;;;;15.07;4.03;;;;;;;11.45;83.82;102529.16;5070057;28;20142;-81
2022/07/10 03:28:02;;;;;;;15.43;4.15;;;;;;;11.42;83.57;102525.72;5069992;28;20077;-81
2022/07/10 03:30:27;;;;;;;9.90;3.83;;;;;;;11.40;83.81;102522.25;5070439;28;20102;-81
2022/07/10 03:32:52;;;;;;;12.80;3.72;;;;;;;11.38;83.87;102511.56;5066421;28;20193;-81
2022/07/10 03:35:18;;;;;;;13.93;3.83;;;;;;;11.38;84.06;102519.63;5063098;28;20055;-81
2022/07/10 03:37:43;;;;;;;14.85;4.13;;;;;;;11.38;83.76;102519.63;5070160;28;20602;-81
2022/07/10 03:40:09;;;;;;;17.40;4.15;;;;;;;11.41;83.94;102521.31;5070530;28;20036;-81
2022/07/10 03:42:34;;;;;;;13.85;3.92;;;;;;;11.37;83.55;102521.44;5060456;28;20043;-81
2022/07/10 03:45:00;;;;;;;8.18;3.30;;;;;;;11.40;84.02;102509.66;5056289;28;20154;-81
2022/07/10 03:47:25;;;;;;;10.65;3.83;;;;;;;11.41;84.21;102506.03;5071435;28;20537;-81
2022/07/10 03:49:50;;;;;;;12.13;3.78;;;;;;;11.41;83.57;102502.47;5069750;28;20028;-81
2022/07/10 03:52:16;;;;;;;13.35;3.58;;;;;;;11.43;83.84;102505.94;5070750;28;20102;-81
2022/07/10 03:54:41;;;;;;;15.32;3.80;;;;;;;11.42;84.06;102506.88;5067865;28;20440;-81
2022/07/10 03:59:50;;;;;;;10.73;3.88;;;;;;;11.39;83.76;102512.44;5068403;28;20501;-81
2022/07/10 04:02:16;;;;;;;10.65;3.88;;;;;;;11.38;84.41;102506.19;5070654;28;20032;-81
2022/07/10 04:04:41;;;;;;;17.48;5.13;;;;;;;11.40;84.40;102511.50;5069334;28;20028;-81
2022/07/10 04:07:06;;;;;;;21.40;6.95;;;;;;;11.39;85.01;102512.44;5069580;28;20093;-81
2022/07/10 04:09:32;;;;;;;18.55;5.97;;;;;;;11.41;84.87;102510.53;5067774;28;20024;-81
2022/07/10 04:11:57;;;;;;;18.95;5.85;;;;;;;11.48;85.72;102512.84;5060350;28;20444;-81
2022/07/10 04:14:22;;;;;;;18.60;5.18;;;;;;;11.56;85.54;102511.59;5068991;28;20143;-81
2022/07/10 04:16:47;;;;;;;20.40;4.93;;;;;;;11.62;86.37;102511.25;5071098;28;20032;-81
2022/07/10 04:19:13;;;;;;;17.63;4.75;;;;;;;11.69;86.94;102515.38;5070674;28;20392;-81
2022/07/10 04:21:38;;;;;;;14.90;4.35;;;;;;;11.73;86.35;102522.38;5070502;28;20158;-81
2022/07/10 04:24:04;;;;;;;13.73;4.68;;;;;;;11.81;85.57;102514.75;5067702;28;20032;-81
2022/07/10 04:26:29;;;;;;;12.57;4.28;;;;;;;11.88;85.93;102521.56;5068080;28;20021;-81
2022/07/10 04:28:55;;;;;;;13.75;4.25;;;;;;;11.99;86.68;102506.69;5067953;28;20384;-81
2022/07/10 04:31:21;;;;;;;10.73;3.80;;;;;;;12.05;86.12;102503.69;5066811;28;20024;-81
2022/07/10 04:33:46;;;;;;;15.00;3.95;;;;;;;12.11;86.06;102502.47;5068986;28;20506;-81
2022/07/10 04:36:11;;;;;;;13.48;4.57;;;;;;;12.16;85.92;102503.97;5068215;28;20083;-81
2022/07/10 04:38:37;;;;;;;15.70;4.40;;;;;;;12.19;85.69;102509.19;5069711;28;20036;-81
2022/07/10 04:41:02;;;;;;;13.02;4.38;;;;;;;12.22;84.34;102509.03;5069313;28;20024;-81
2022/07/10 04:43:27;;;;;;;17.00;4.30;;;;;;;12.27;84.73;102505.22;5068584;28;20027;-81
2022/07/10 04:45:52;;;;;;;12.98;4.55;;;;;;;12.31;84.28;102496.00;5069072;28;20016;-81
2022/07/10 04:48:18;;;;;;;15.20;4.68;;;;;;;12.39;85.85;102496.47;5061094;28;20024;-81
2022/07/10 04:50:43;;;;;;;15.70;4.57;;;;;;;12.44;85.07;102497.06;5064459;28;20434;-81
2022/07/10 04:53:08;;;;;;;14.50;4.57;;;;;;;12.50;85.42;102496.72;5069952;28;20048;-81
2022/07/10 04:55:33;;;;;;;13.48;4.22;;;;;;;12.54;83.92;102514.50;5068356;28;20487;-81
2022/07/10 04:57:59;;;;;;;15.60;4.72;;;;;;;12.61;83.93;102511.44;5069051;28;20028;-81
2022/07/10 05:00:24;;;;;;;13.18;4.28;;;;;;;12.70;84.46;102508.25;5067887;28;20105;-81
2022/07/10 05:02:50;;;;;;;13.50;4.55;;;;;;;12.74;84.08;102512.53;5069285;28;20127;-81
2022/07/10 05:05:15;;;;;;;15.48;3.97;;;;;;;12.80;84.16;102504.09;5068011;28;20040;-81
2022/07/10 05:07:40;;;;;;;12.43;3.95;;;;;;;12.89;84.79;102498.16;5069008;28;20127;-81
2022/07/10 05:10:06;;;;;;;11.65;3.67;;;;;;;12.98;84.93;102498.59;5067807;28;20127;-81
2022/07/10 05:12:31;;;;;;;16.33;4.32;;;;;;;13.04;84.18;102500.94;5067918;28;20032;-81
2022/07/10 05:14:57;;;;;;;17.90;4.55;;;;;;;13.10;84.55;102503.28;5066423;28;20112;-81
2022/07/10 05:17:23;;;;;;;15.48;4.10;;;;;;;13.13;83.79;102510.34;5066620;28;20020;-81
2022/07/10 05:19:48;;;;;;;15.18;4.13;;;;;;;13.18;83.48;102511.81;5068119;28;20037;-81
2022/07/10 05:22:13;;;;;;;16.42;4.35;;;;;;;13.24;83.23;102508.75;5074959;28;20040;-81
2022/07/10 05:24:39;;;;;;;17.30;5.15;;;;;;;13.31;84.45;102511.09;5066579;28;20081;-81
2022/07/10 05:27:05;;;;;;;14.70;4.75;;;;;;;13.38;85.62;102512.53;5069077;28;20444;-82
2022/07/10 05:29:30;;;;;;;14.15;4.32;;;;;;;13.44;84.78;102504.06;5069322;28;20025;-82
2022/07/10 05:31:55;;;;;;;15.63;4.22;;;;;;;13.43;85.16;102503.19;5068069;28;20024;-82
2022/07/10 05:34:21;;;;;;;14.60;4.18;;;;;;;13.50;83.93;102505.53;5066880;28;20040;-82
2022/07/10 05:36:46;;;;;;;18.20;4.63;;;;;;;13.56;83.86;102506.03;5071430;28;20116;-82
2022/07/10 05:39:11;;;;;;;13.55;4.13;;;;;;;13.60;84.06;102504.91;5070751;28;20021;-82
2022/07/10 05:41:36;;;;;;;8.75;3.25;;;;;;;13.64;83.90;102509.13;5071151;28;20044;-82
2022/07/10 05:44:02;;;;;;;20.50;4.13;;;;;;;13.71;83.24;102517.75;5072310;28;20468;-82
2022/07/10 05:46:28;;;;;;;10.00;3.47;;;;;;;13.78;85.05;102515.56;5072938;28;20036;-82
2022/07/10 05:48:53;;;;;;;10.32;3.63;;;;;;;13.83;84.06;102510.75;5071578;28;20044;-82
2022/07/10 05:51:18;;;;;;;11.57;3.45;;;;;;;13.90;83.19;102511.25;5075384;28;20042;-82
2022/07/10 05:53:43;;;;;;;8.90;2.90;;;;;;;13.93;85.02;102511.06;5071114;28;20028;-82
2022/07/10 05:56:09;;;;;;;13.35;3.83;;;;;;;14.04;84.28;102507.69;5072109;28;20028;-82
2022/07/10 05:58:34;;;;;;;10.93;3.10;;;;;;;14.12;85.07;102510.81;5070925;28;20044;-82
2022/07/10 06:01:00;;;;;;;8.63;2.50;;;;;;;14.15;83.52;102511.47;5072310;28;20208;-82
2022/07/10 06:03:26;;;;;;;14.88;2.92;;;;;;;14.21;84.28;102515.63;5071300;28;21387;-82
2022/07/10 06:05:51;;;;;;;8.77;2.92;;;;;;;14.26;83.33;102516.22;5072233;28;20020;-82
2022/07/10 06:08:16;;;;;;;11.13;3.03;;;;;;;14.28;82.42;102511.56;5070267;28;20091;-82
2022/07/10 06:10:43;;;;;;;8.40;2.40;;;;;;;14.34;83.58;102510.31;5050716;28;20098;-82
2022/07/10 06:13:09;;;;;;;12.65;2.65;;;;;;;14.37;82.56;102499.31;5066525;28;20063;-82
2022/07/10 06:15:34;;;;;;;11.52;2.78;;;;;;;14.45;81.04;102504.22;5069999;28;20021;-80
2022/07/10 06:18:00;;;;;;;11.63;2.60;;;;;;;14.50;80.49;102500.25;5071014;28;20472;-80
2022/07/10 06:20:25;;;;;;;6.22;2.17;;;;;;;14.56;76.62;102514.38;5073941;28;20115;-78
2022/07/10 06:22:51;;;;;;;12.00;2.75;;;;;;;14.62;82.31;102506.75;5076513;28;20468;-78
2022/07/10 06:25:16;;;;;;;18.60;3.05;;;;;;;14.70;80.73;102508.09;5069519;28;20024;-78
2022/07/10 06:27:42;;;;;;;12.05;2.63;;;;;;;14.76;79.65;102511.31;5072047;28;20486;-78
2022/07/10 06:30:08;;;;;;;6.10;2.10;;;;;;;14.80;74.75;102511.97;5062840;28;20043;-78
2022/07/10 06:32:33;;;;;;;10.65;2.38;;;;;;;14.88;77.44;102511.47;5070830;28;20024;-78
2022/07/10 06:34:58;;;;;;;10.35;2.50;;;;;;;14.95;80.77;102512.78;5069274;28;20116;-78
2022/07/10 06:37:24;;;;;;;11.48;2.70;;;;;;;15.03;79.68;102510.47;5070294;28;20031;-78
2022/07/10 06:39:49;;;;;;;8.50;2.28;;;;;;;15.07;76.77;102508.44;5069751;28;20102;-78
2022/07/10 06:42:15;;;;;;;4.95;2.22;;;;;;;15.11;76.27;102507.25;5070648;28;20028;-77
2022/07/10 06:44:42;;;;;;;11.93;2.85;;;;;;;15.20;77.96;102507.50;5069979;28;20021;-78
2022/07/10 06:49:52;;;;;;;6.00;2.20;;;;;;;15.28;73.52;102506.13;5062119;28;20425;-78
2022/07/10 06:52:18;;;;;;;8.45;2.75;;;;;;;15.38;77.78;102505.41;5068380;28;20480;-78
2022/07/10 06:54:43;;;;;;;9.07;2.35;;;;;;;15.42;75.26;102506.06;5067265;28;20028;-78
2022/07/10 06:57:09;;;;;;;10.10;2.63;;;;;;;15.51;77.84;102499.16;5068482;28;20017;-78
2022/07/10 06:59:35;;;;;;;15.50;3.03;;;;;;;15.60;77.06;102505.81;5069409;28;20041;-78
2022/07/10 07:02:00;;;;;;;10.30;2.50;;;;;;;15.64;77.30;102508.19;5069761;28;20028;-78
2022/07/10 07:04:25;;;;;;;14.52;3.08;;;;;;;15.70;76.64;102507.75;5069219;28;20488;-78
2022/07/10 07:06:50;;;;;;;10.65;2.83;;;;;;;15.76;77.09;102500.19;5072109;28;20028;-78
2022/07/10 07:09:16;;;;;;;12.15;3.15;;;;;;;15.80;74.41;102499.03;5066671;28;20395;-78
2022/07/10 07:11:41;;;;;;;9.18;2.70;;;;;;;15.86;75.27;102498.63;5064961;28;20038;-78
2022/07/10 07:14:06;;;;;;;11.50;2.53;;;;;;;15.92;75.65;102495.47;5070621;28;20406;-79
2022/07/10 07:16:41;;;;;;;14.50;2.92;;;;;;;15.97;74.83;102498.72;5061546;28;20133;-78
2022/07/10 07:19:06;;;;;;;44.40;8.10;;;;;;;16.03;75.13;102506.44;5066524;28;20029;-78
2022/07/10 07:24:18;;;;;;;9.88;2.65;;;;;;;16.16;75.91;102517.28;5068294;28;20495;-76
2022/07/10 07:26:44;;;;;;;4.78;2.17;;;;;;;16.19;76.19;102513.47;5063103;28;20028;-76
2022/07/10 07:29:09;;;;;;;7.43;2.25;;;;;;;16.23;74.53;102517.72;5068259;28;20119;-76
2022/07/10 07:31:34;;;;;;;13.20;2.97;;;;;;;16.28;76.18;102522.81;5068575;28;20021;-76
2022/07/10 07:33:59;;;;;;;10.27;2.85;;;;;;;16.31;73.87;102514.44;5069829;28;20456;-77
2022/07/10 07:36:25;;;;;;;8.25;2.60;;;;;;;16.38;76.61;102516.66;5071279;28;20020;-77
2022/07/10 07:38:52;;;;;;;8.57;2.78;;;;;;;16.39;73.89;102515.66;5071730;28;20149;-77
2022/07/10 07:41:18;;;;;;;7.90;2.28;;;;;;;16.43;74.99;102506.31;5070869;28;20383;-80
2022/07/10 07:43:43;;;;;;;11.07;2.90;;;;;;;16.50;76.37;102511.28;5071237;28;20112;-80
2022/07/10 07:46:09;;;;;;;13.95;3.38;;;;;;;16.55;76.43;102515.41;5070199;28;20025;-78
2022/07/10 07:48:34;;;;;;;16.17;3.53;;;;;;;16.59;75.49;102521.50;5071440;28;20086;-78
2022/07/10 07:51:00;;;;;;;14.07;3.65;;;;;;;16.67;76.43;102518.22;5069151;28;20040;-77
2022/07/10 07:53:25;;;;;;;13.35;3.45;;;;;;;16.71;75.98;102520.59;5071327;28;20071;-77
2022/07/10 07:55:50;;;;;;;14.45;4.07;;;;;;;16.74;73.97;102514.94;5069925;28;20024;-78
2022/07/10 07:58:16;;;;;;;13.32;3.80;;;;;;;16.75;72.92;102519.41;5069702;28;20476;-78
2022/07/10 08:00:41;;;;;;;13.68;3.60;;;;;;;16.74;71.94;102517.66;5070765;28;20024;-79
2022/07/10 08:03:08;;;;;;;16.60;4.22;;;;;;;16.75;71.85;102516.69;5066143;28;20031;-79
2022/07/10 08:05:33;;;;;;;14.77;4.38;;;;;;;16.77;71.81;102522.84;5063410;28;20031;-79
2022/07/10 08:08:04;;;;;;;15.98;4.40;;;;;;;16.76;72.30;102518.44;5069268;28;20383;-79
2022/07/10 08:10:29;;;;;;;15.25;3.88;;;;;;;16.76;72.59;102518.44;5066481;28;20535;-79
2022/07/10 08:12:55;;;;;;;17.20;4.40;;;;;;;16.78;73.96;102511.03;5065181;28;20127;-79
2022/07/10 08:15:24;;;;;;;16.10;4.20;;;;;;;16.80;73.93;102510.91;5070157;28;20032;-79
2022/07/10 08:17:51;;;;;;;15.50;3.78;;;;;;;16.83;72.61;102512.53;5070320;28;20428;-79
2022/07/10 08:20:16;;;;;;;16.65;3.95;;;;;;;16.85;71.72;102510.56;5069846;28;20028;-79
2022/07/10 08:22:42;;;;;;;14.48;4.32;;;;;;;16.88;73.01;102507.66;5069865;28;20051;-79
2022/07/10 08:25:08;;;;;;;13.48;4.82;;;;;;;16.92;73.15;102504.59;5084227;28;20024;-79
2022/07/10 08:27:34;;;;;;;12.98;4.10;;;;;;;16.97;73.85;102501.56;5067677;28;20167;-78
2022/07/10 08:30:00;;;;;;;17.42;4.40;;;;;;;17.03;72.30;102505.66;5057778;28;20024;-78
2022/07/10 08:32:27;;;;;;;18.10;4.70;;;;;;;17.06;72.71;102513.59;5059047;28;20156;-78
2022/07/10 08:34:52;;;;;;;18.00;4.75;;;;;;;17.11;71.70;102505.94;5066362;28;20035;-78
2022/07/10 08:37:19;;;;;;;12.13;3.60;;;;;;;17.14;72.01;102505.72;5068443;28;20404;-77
2022/07/10 08:39:44;;;;;;;15.35;4.38;;;;;;;17.17;71.75;102515.50;5065361;28;20110;-78
2022/07/10 08:42:10;;;;;;;14.15;3.40;;;;;;;17.19;71.71;102505.38;5060516;28;20467;-78
2022/07/10 08:44:37;;;;;;;11.07;3.17;;;;;;;17.19;70.86;102508.09;5067881;28;20584;-78
2022/07/10 08:47:03;;;;;;;18.45;3.75;;;;;;;17.16;69.88;102516.47;5059517;28;20423;-79
2022/07/10 08:49:30;;;;;;;13.57;3.63;;;;;;;17.09;71.47;102522.38;5061088;28;20024;-78
2022/07/10 08:52:31;;;;;;;15.15;3.90;;;;;;;17.08;71.03;102509.75;5083031;28;20136;-78
2022/07/10 08:54:58;;;;;;;12.55;3.15;;;;;;;17.06;71.87;102511.75;5058105;28;20116;-78
2022/07/10 08:57:24;;;;;;;14.35;3.92;;;;;;;17.07;71.30;102518.91;5058161;28;20388;-78
2022/07/10 08:59:49;;;;;;;24.30;4.45;;;;;;;17.10;72.61;102521.41;5061139;28;20082;-79
2022/07/10 09:02:15;;;;;;;10.57;3.53;;;;;;;17.12;71.99;102519.41;5061409;28;20029;-78
2022/07/10 09:04:41;;;;;;;13.32;3.85;;;;;;;17.20;72.33;102515.25;5049758;28;20090;-78
2022/07/10 09:07:06;;;;;;;16.67;4.25;;;;;;;17.23;71.21;102513.19;5057472;28;20101;-78
2022/07/10 09:09:31;;;;;;;12.77;3.63;;;;;;;17.24;69.70;102514.06;5050621;28;20465;-78
2022/07/10 09:11:57;;;;;;;14.40;3.92;;;;;;;17.28;70.83;102513.69;5055460;28;20029;-78
2022/07/10 09:14:27;;;;;;;10.70;3.78;;;;;;;17.30;70.46;102508.16;5060220;28;20056;-78
2022/07/10 09:16:53;;;;;;;12.90;3.50;;;;;;;17.32;71.33;102503.50;5064417;28;20036;-79
2022/07/10 09:19:27;;;;;;;11.75;3.53;;;;;;;17.38;72.70;102507.56;5069920;28;20094;-78
2022/07/10 09:22:03;;;;;;;9.65;3.25;;;;;;;17.42;71.60;102500.91;5070100;28;20036;-78
2022/07/10 09:24:38;;;;;;;13.70;3.47;;;;;;;17.45;71.76;102492.53;5071161;28;20495;-80
2022/07/10 09:27:04;;;;;;;11.38;3.45;;;;;;;17.45;69.39;102497.97;5072500;28;20101;-81
2022/07/10 09:29:45;;;;;;;13.88;4.00;;;;;;;17.43;70.44;102495.34;5073468;28;20392;-80
2022/07/10 09:32:11;;;;;;;15.05;4.22;;;;;;;17.42;71.51;102499.09;5076463;28;20432;-80
2022/07/10 09:34:45;;;;;;;9.98;3.58;;;;;;;17.47;73.34;102486.00;5076071;28;20104;-80
2022/07/10 09:37:20;;;;;;;8.93;3.53;;;;;;;17.50;71.20;102479.47;5073980;28;20028;-80
2022/07/10 09:40:04;;;;;;;10.48;3.55;;;;;;;17.53;70.87;102494.69;5074530;28;20075;-80
2022/07/10 09:42:36;;;;;;;10.63;3.55;;;;;;;17.52;69.69;102485.63;5063896;28;20623;-80
2022/07/10 09:45:16;;;;;;;9.40;2.95;;;;;;;17.53;70.14;102483.81;5054978;28;20033;-80
2022/07/10 09:47:56;;;;;;;9.10;2.83;;;;;;;17.55;72.28;102481.81;5065602;28;20381;-80
2022/07/10 09:50:34;;;;;;;11.07;2.90;;;;;;;17.57;71.87;102490.72;5058850;28;20024;-80
2022/07/10 09:53:05;;;;;;;7.82;3.17;;;;;;;17.56;71.00;102487.13;5073846;28;20508;-80
2022/07/10 09:55:34;;;;;;;13.30;3.28;;;;;;;17.62;70.13;102480.38;5072485;28;20067;-80
2022/07/10 09:58:02;;;;;;;10.80;3.97;;;;;;;17.70;71.56;102472.50;5075902;28;20032;-80
2022/07/10 10:00:33;;;;;;;10.43;3.33;;;;;;;17.76;69.83;102469.28;5072703;28;20341;-80
2022/07/10 10:03:01;;;;;;;8.95;3.03;;;;;;;17.82;69.61;102473.38;5070355;28;20082;-80
2022/07/10 10:05:58;;;;;;;10.40;3.20;;;;;;;17.85;70.15;102474.97;5072420;28;20032;-80
2022/07/10 10:08:37;;;;;;;8.43;3.05;;;;;;;17.79;69.50;102479.06;5071907;28;20032;-80
2022/07/10 10:11:04;;;;;;;9.40;3.08;;;;;;;17.80;68.90;102476.22;5071005;28;20030;-80
2022/07/10 10:13:30;;;;;;;10.60;3.42;;;;;;;17.81;68.75;102474.34;5064781;28;20064;-81
2022/07/10 10:15:56;;;;;;;9.73;3.20;;;;;;;17.90;70.14;102470.06;5075831;28;20025;-80
2022/07/10 10:18:26;;;;;;;9.57;3.38;;;;;;;17.99;70.84;102472.06;5074481;28;20040;-80
2022/07/10 10:20:55;;;;;;;14.50;3.58;;;;;;;18.06;70.54;102467.88;5070877;28;20568;-80
2022/07/10 10:23:22;;;;;;;9.75;3.45;;;;;;;18.11;70.77;102472.94;5054486;28;20110;-80
2022/07/10 10:25:49;;;;;;;11.57;3.95;;;;;;;18.11;68.74;102475.66;5067254;28;20024;-80
2022/07/10 10:28:16;;;;;;;10.15;3.53;;;;;;;18.15;71.77;102471.72;5072653;28;20020;-80
2022/07/10 10:30:44;;;;;;;11.25;3.97;;;;;;;18.17;69.42;102469.75;5072753;28;20016;-80
2022/07/10 10:33:31;;;;;;;12.02;3.75;;;;;;;18.21;69.72;102460.31;5074810;28;20178;-80
2022/07/10 10:35:58;;;;;;;9.27;3.67;;;;;;;18.27;69.08;102456.25;5073620;28;20442;-80
2022/07/10 10:38:23;;;;;;;12.32;3.42;;;;;;;18.34;68.61;102462.94;5072787;28;20119;-80
2022/07/10 10:40:49;;;;;;;11.98;3.72;;;;;;;18.40;68.12;102454.25;5072907;28;20112;-80
2022/07/10 10:43:19;;;;;;;9.13;3.47;;;;;;;18.49;68.22;102464.44;5071444;28;20118;-80
2022/07/10 10:45:46;;;;;;;10.13;2.95;;;;;;;18.55;67.36;102462.19;5072717;28;20100;-80
2022/07/10 10:48:17;;;;;;;10.13;3.08;;;;;;;18.60;66.92;102466.25;5074651;28;20570;-80
2022/07/10 10:50:52;;;;;;;12.52;3.72;;;;;;;18.66;66.69;102454.00;5072532;28;20021;-80
2022/07/10 10:53:22;;;;;;;9.98;3.38;;;;;;;18.68;66.33;102454.72;5073124;28;20023;-81
2022/07/10 10:56:00;;;;;;;11.80;3.63;;;;;;;18.72;67.61;102460.81;5070910;28;20259;-80
2022/07/10 10:58:44;;;;;;;11.07;3.13;;;;;;;18.75;67.62;102466.00;5070435;28;20024;-80
2022/07/10 11:01:28;;;;;;;6.93;2.80;;;;;;;18.84;68.63;102462.50;5074194;28;20040;-80
2022/07/10 11:04:09;;;;;;;7.50;3.22;;;;;;;18.86;67.69;102461.41;5071678;28;20035;-80
2022/07/10 11:06:46;;;;;;;9.90;2.88;;;;;;;18.88;66.64;102461.28;5074280;28;20039;-80
2022/07/10 11:09:28;;;;;;;9.90;3.38;;;;;;;18.86;66.66;102453.25;5073720;28;20606;-81
2022/07/10 11:12:04;;;;;;;6.68;2.83;;;;;;;18.90;67.50;102448.38;5075028;28;20067;-80
2022/07/10 11:14:31;;;;;;;11.27;3.05;;;;;;;18.95;66.39;102448.03;5072954;28;20076;-81
2022/07/10 11:16:57;;;;;;;5.47;2.63;;;;;;;19.01;65.74;102447.50;5070922;28;20093;-81
2022/07/10 11:19:24;;;;;;;5.03;2.42;;;;;;;19.06;68.37;102445.25;5073010;28;20036;-82
2022/07/10 11:22:10;;;;;;;8.90;2.85;;;;;;;19.11;67.34;102444.88;5073934;28;20383;-80
2022/07/10 11:24:58;;;;;;;9.93;3.30;;;;;;;19.12;66.92;102442.03;5071007;28;20032;-81
2022/07/10 11:28:04;;;;;;;8.57;2.95;;;;;;;19.19;66.31;102442.34;5068031;28;20021;-80
2022/07/10 11:30:43;;;;;;;10.32;3.67;;;;;;;19.28;68.90;102444.28;5070335;28;20365;-81